sensor_id;sensor_type;location;lat;lon;timestamp;temperature;humidity
25640;DHT22;13497;48.322;16.204;2023-05-23T00:01:38;16.80;99.90
25640;DHT22;13497;48.322;16.204;2023-05-23T00:04:04;16.70;99.90
25640;DHT22;13497;48.322;16.204;2023-05-23T00:06:31;16.60;99.90
25640;DHT22;13497;48.322;16.204;2023-05-23T00:08:57;16.60;99.90
25640;DHT22;13497;48.322;16.204;2023-05-23T00:11:22;16.50;99.90
25640;DHT22;13497;48.322;16.204;2023-05-23T00:13:52;16.40;99.90
25640;DHT22;13497;48.322;16.204;2023-05-23T00:16:18;16.30;99.90
25640;DHT22;13497;48.322;16.204;2023-05-23T00:18:43;16.30;99.90
25640;DHT22;13497;48.322;16.204;2023-05-23T00:21:10;16.30;99.90
25640;DHT22;13497;48.322;16.204;2023-05-23T00:23:38;16.20;99.90
25640;DHT22;13497;48.322;16.204;2023-05-23T00:26:07;16.20;99.90
25640;DHT22;13497;48.322;16.204;2023-05-23T00:28:32;16.10;99.90
25640;DHT22;13497;48.322;16.204;2023-05-23T00:30:58;16.10;99.90
25640;DHT22;13497;48.322;16.204;2023-05-23T00:33:24;16.10;99.90
25640;DHT22;13497;48.322;16.204;2023-05-23T00:35:49;16.20;99.90
25640;DHT22;13497;48.322;16.204;2023-05-23T00:38:16;16.10;99.90
25640;DHT22;13497;48.322;16.204;2023-05-23T00:40:41;16.10;99.90
25640;DHT22;13497;48.322;16.204;2023-05-23T00:43:07;16.00;99.90
25640;DHT22;13497;48.322;16.204;2023-05-23T00:45:33;16.00;99.90
25640;DHT22;13497;48.322;16.204;2023-05-23T00:47:59;15.90;99.90
25640;DHT22;13497;48.322;16.204;2023-05-23T00:50:26;15.90;99.90
25640;DHT22;13497;48.322;16.204;2023-05-23T00:52:55;15.90;99.90
25640;DHT22;13497;48.322;16.204;2023-05-23T00:55:25;15.90;99.90
25640;DHT22;13497;48.322;16.204;2023-05-23T00:57:52;15.90;99.90
25640;DHT22;13497;48.322;16.204;2023-05-23T01:00:20;15.80;99.90
25640;DHT22;13497;48.322;16.204;2023-05-23T01:02:47;15.80;99.90
25640;DHT22;13497;48.322;16.204;2023-05-23T01:05:17;15.80;99.90
25640;DHT22;13497;48.322;16.204;2023-05-23T01:07:45;15.70;99.90
25640;DHT22;13497;48.322;16.204;2023-05-23T01:10:12;15.60;99.90
25640;DHT22;13497;48.322;16.204;2023-05-23T01:13:17;15.60;99.90
25640;DHT22;13497;48.322;16.204;2023-05-23T01:16:00;15.60;99.90
25640;DHT22;13497;48.322;16.204;2023-05-23T01:18:32;15.70;99.90
25640;DHT22;13497;48.322;16.204;2023-05-23T01:21:05;15.70;99.90
25640;DHT22;13497;48.322;16.204;2023-05-23T01:28:56;15.50;99.90
25640;DHT22;13497;48.322;16.204;2023-05-23T01:31:23;15.40;99.90
25640;DHT22;13497;48.322;16.204;2023-05-23T01:33:53;15.40;99.90
25640;DHT22;13497;48.322;16.204;2023-05-23T01:36:20;15.30;99.90
25640;DHT22;13497;48.322;16.204;2023-05-23T01:38:46;15.30;99.90
25640;DHT22;13497;48.322;16.204;2023-05-23T01:41:11;15.30;99.90
25640;DHT22;13497;48.322;16.204;2023-05-23T01:43:37;15.30;99.90
25640;DHT22;13497;48.322;16.204;2023-05-23T01:46:04;15.30;99.90
25640;DHT22;13497;48.322;16.204;2023-05-23T01:48:31;15.30;99.90
25640;DHT22;13497;48.322;16.204;2023-05-23T01:50:58;15.30;99.90
25640;DHT22;13497;48.322;16.204;2023-05-23T01:53:24;15.40;99.90
25640;DHT22;13497;48.322;16.204;2023-05-23T01:55:51;15.40;99.90
25640;DHT22;13497;48.322;16.204;2023-05-23T01:58:17;15.30;99.90
25640;DHT22;13497;48.322;16.204;2023-05-23T02:00:42;15.30;99.90
25640;DHT22;13497;48.322;16.204;2023-05-23T02:03:08;15.20;99.90
25640;DHT22;13497;48.322;16.204;2023-05-23T02:05:34;15.10;99.90
25640;DHT22;13497;48.322;16.204;2023-05-23T02:08:00;15.00;99.90
25640;DHT22;13497;48.322;16.204;2023-05-23T02:10:25;15.10;99.90
25640;DHT22;13497;48.322;16.204;2023-05-23T02:12:51;15.10;99.90
25640;DHT22;13497;48.322;16.204;2023-05-23T02:15:17;15.10;99.90
25640;DHT22;13497;48.322;16.204;2023-05-23T02:17:42;15.10;99.90
25640;DHT22;13497;48.322;16.204;2023-05-23T02:20:09;15.10;99.90
25640;DHT22;13497;48.322;16.204;2023-05-23T02:22:35;15.10;99.90
25640;DHT22;13497;48.322;16.204;2023-05-23T02:25:01;15.10;99.90
25640;DHT22;13497;48.322;16.204;2023-05-23T02:27:26;15.10;99.90
25640;DHT22;13497;48.322;16.204;2023-05-23T02:29:52;15.00;99.90
25640;DHT22;13497;48.322;16.204;2023-05-23T02:32:18;15.00;99.90
25640;DHT22;13497;48.322;16.204;2023-05-23T02:34:44;15.00;99.90
25640;DHT22;13497;48.322;16.204;2023-05-23T02:37:14;14.90;99.90
25640;DHT22;13497;48.322;16.204;2023-05-23T02:39:41;14.80;99.90
25640;DHT22;13497;48.322;16.204;2023-05-23T02:42:07;14.70;99.90
25640;DHT22;13497;48.322;16.204;2023-05-23T02:44:33;14.70;99.90
25640;DHT22;13497;48.322;16.204;2023-05-23T02:46:58;14.60;99.90
25640;DHT22;13497;48.322;16.204;2023-05-23T02:49:24;14.60;99.90
25640;DHT22;13497;48.322;16.204;2023-05-23T02:51:50;14.70;99.90
25640;DHT22;13497;48.322;16.204;2023-05-23T02:54:16;14.70;99.90
25640;DHT22;13497;48.322;16.204;2023-05-23T02:56:41;14.70;99.90
25640;DHT22;13497;48.322;16.204;2023-05-23T02:59:07;14.70;99.90
25640;DHT22;13497;48.322;16.204;2023-05-23T03:01:33;14.70;99.90
25640;DHT22;13497;48.322;16.204;2023-05-23T03:03:59;14.60;99.90
25640;DHT22;13497;48.322;16.204;2023-05-23T03:06:25;14.60;99.90
25640;DHT22;13497;48.322;16.204;2023-05-23T03:08:51;14.50;99.90
25640;DHT22;13497;48.322;16.204;2023-05-23T03:11:17;14.50;99.90
25640;DHT22;13497;48.322;16.204;2023-05-23T03:13:43;14.50;99.90
25640;DHT22;13497;48.322;16.204;2023-05-23T03:16:09;14.60;99.90
25640;DHT22;13497;48.322;16.204;2023-05-23T03:18:36;14.60;99.90
25640;DHT22;13497;48.322;16.204;2023-05-23T03:21:02;14.70;99.90
25640;DHT22;13497;48.322;16.204;2023-05-23T03:23:28;14.70;99.90
25640;DHT22;13497;48.322;16.204;2023-05-23T03:25:53;14.70;99.90
25640;DHT22;13497;48.322;16.204;2023-05-23T03:28:19;14.60;99.90
25640;DHT22;13497;48.322;16.204;2023-05-23T03:30:44;14.60;99.90
25640;DHT22;13497;48.322;16.204;2023-05-23T03:33:10;14.80;99.90
25640;DHT22;13497;48.322;16.204;2023-05-23T03:35:36;14.90;99.90
25640;DHT22;13497;48.322;16.204;2023-05-23T03:38:02;14.90;99.90
25640;DHT22;13497;48.322;16.204;2023-05-23T03:40:28;15.00;99.90
25640;DHT22;13497;48.322;16.204;2023-05-23T03:43:06;15.00;99.90
25640;DHT22;13497;48.322;16.204;2023-05-23T03:45:33;15.00;99.90
25640;DHT22;13497;48.322;16.204;2023-05-23T03:47:59;15.10;99.90
25640;DHT22;13497;48.322;16.204;2023-05-23T03:50:25;15.20;99.90
25640;DHT22;13497;48.322;16.204;2023-05-23T03:52:51;15.20;99.90
25640;DHT22;13497;48.322;16.204;2023-05-23T03:55:17;15.30;99.90
25640;DHT22;13497;48.322;16.204;2023-05-23T03:57:50;15.40;99.90
25640;DHT22;13497;48.322;16.204;2023-05-23T04:00:18;15.40;99.90
25640;DHT22;13497;48.322;16.204;2023-05-23T04:02:45;15.50;99.90
25640;DHT22;13497;48.322;16.204;2023-05-23T04:05:11;15.50;99.90
25640;DHT22;13497;48.322;16.204;2023-05-23T04:07:37;15.70;99.90
25640;DHT22;13497;48.322;16.204;2023-05-23T04:10:03;15.90;99.90
25640;DHT22;13497;48.322;16.204;2023-05-23T04:12:29;16.40;99.90
25640;DHT22;13497;48.322;16.204;2023-05-23T04:14:56;16.80;99.90
25640;DHT22;13497;48.322;16.204;2023-05-23T04:17:22;17.30;99.90
25640;DHT22;13497;48.322;16.204;2023-05-23T04:19:49;17.60;99.90
25640;DHT22;13497;48.322;16.204;2023-05-23T04:22:15;17.70;99.90
25640;DHT22;13497;48.322;16.204;2023-05-23T04:24:41;17.80;99.90
25640;DHT22;13497;48.322;16.204;2023-05-23T04:27:06;17.90;99.90
25640;DHT22;13497;48.322;16.204;2023-05-23T04:29:34;18.10;99.90
25640;DHT22;13497;48.322;16.204;2023-05-23T04:32:01;18.30;99.90
25640;DHT22;13497;48.322;16.204;2023-05-23T04:34:26;18.30;99.90
25640;DHT22;13497;48.322;16.204;2023-05-23T04:36:52;18.40;99.90
25640;DHT22;13497;48.322;16.204;2023-05-23T04:39:22;18.50;99.90
25640;DHT22;13497;48.322;16.204;2023-05-23T04:41:48;18.90;99.90
25640;DHT22;13497;48.322;16.204;2023-05-23T04:44:14;19.40;99.90
25640;DHT22;13497;48.322;16.204;2023-05-23T04:46:40;19.70;99.90
25640;DHT22;13497;48.322;16.204;2023-05-23T04:49:07;20.00;99.90
25640;DHT22;13497;48.322;16.204;2023-05-23T04:51:33;20.50;99.90
25640;DHT22;13497;48.322;16.204;2023-05-23T04:53:59;20.80;99.90
25640;DHT22;13497;48.322;16.204;2023-05-23T04:56:25;21.30;99.90
25640;DHT22;13497;48.322;16.204;2023-05-23T04:58:52;21.80;99.90
25640;DHT22;13497;48.322;16.204;2023-05-23T05:01:18;22.10;99.90
25640;DHT22;13497;48.322;16.204;2023-05-23T05:03:44;22.30;99.90
25640;DHT22;13497;48.322;16.204;2023-05-23T05:06:10;22.90;99.90
25640;DHT22;13497;48.322;16.204;2023-05-23T05:08:36;23.50;99.90
25640;DHT22;13497;48.322;16.204;2023-05-23T05:11:01;24.20;99.90
25640;DHT22;13497;48.322;16.204;2023-05-23T05:13:27;24.50;99.00
25640;DHT22;13497;48.322;16.204;2023-05-23T05:15:53;24.50;98.60
25640;DHT22;13497;48.322;16.204;2023-05-23T05:18:19;24.40;98.70
25640;DHT22;13497;48.322;16.204;2023-05-23T05:20:44;24.60;98.60
25640;DHT22;13497;48.322;16.204;2023-05-23T05:23:10;24.60;98.60
25640;DHT22;13497;48.322;16.204;2023-05-23T05:25:36;24.70;98.40
25640;DHT22;13497;48.322;16.204;2023-05-23T05:28:02;25.00;98.00
25640;DHT22;13497;48.322;16.204;2023-05-23T05:30:31;25.60;97.30
25640;DHT22;13497;48.322;16.204;2023-05-23T05:33:00;25.80;96.50
25640;DHT22;13497;48.322;16.204;2023-05-23T05:35:35;25.50;96.80
25640;DHT22;13497;48.322;16.204;2023-05-23T05:38:02;25.50;96.70
25640;DHT22;13497;48.322;16.204;2023-05-23T05:40:32;25.90;96.20
25640;DHT22;13497;48.322;16.204;2023-05-23T05:42:57;26.30;95.90
25640;DHT22;13497;48.322;16.204;2023-05-23T05:45:23;26.40;95.60
25640;DHT22;13497;48.322;16.204;2023-05-23T05:47:48;26.10;95.50
25640;DHT22;13497;48.322;16.204;2023-05-23T05:50:14;26.40;95.00
25640;DHT22;13497;48.322;16.204;2023-05-23T05:52:40;26.50;94.40
25640;DHT22;13497;48.322;16.204;2023-05-23T05:55:08;26.50;94.60
25640;DHT22;13497;48.322;16.204;2023-05-23T05:57:38;26.50;94.40
25640;DHT22;13497;48.322;16.204;2023-05-23T06:00:11;26.30;94.50
25640;DHT22;13497;48.322;16.204;2023-05-23T06:02:40;26.80;94.20
25640;DHT22;13497;48.322;16.204;2023-05-23T06:05:08;26.90;93.80
25640;DHT22;13497;48.322;16.204;2023-05-23T06:07:40;26.80;94.00
25640;DHT22;13497;48.322;16.204;2023-05-23T06:10:06;26.80;93.90
25640;DHT22;13497;48.322;16.204;2023-05-23T06:12:34;26.80;93.50
25640;DHT22;13497;48.322;16.204;2023-05-23T06:15:00;26.50;93.80
25640;DHT22;13497;48.322;16.204;2023-05-23T06:17:27;26.30;94.00
25640;DHT22;13497;48.322;16.204;2023-05-23T06:19:52;26.00;94.40
25640;DHT22;13497;48.322;16.204;2023-05-23T06:22:18;26.00;94.80
25640;DHT22;13497;48.322;16.204;2023-05-23T06:24:44;26.00;94.50
25640;DHT22;13497;48.322;16.204;2023-05-23T06:27:11;25.90;94.60
25640;DHT22;13497;48.322;16.204;2023-05-23T06:29:37;26.30;94.30
25640;DHT22;13497;48.322;16.204;2023-05-23T06:32:02;26.40;94.00
25640;DHT22;13497;48.322;16.204;2023-05-23T06:34:28;26.30;94.00
25640;DHT22;13497;48.322;16.204;2023-05-23T06:36:54;26.60;93.70
25640;DHT22;13497;48.322;16.204;2023-05-23T06:39:20;26.50;93.60
25640;DHT22;13497;48.322;16.204;2023-05-23T06:41:46;25.90;94.20
25640;DHT22;13497;48.322;16.204;2023-05-23T06:44:12;25.20;95.10
25640;DHT22;13497;48.322;16.204;2023-05-23T06:46:38;24.30;96.10
25640;DHT22;13497;48.322;16.204;2023-05-23T06:49:03;23.60;97.30
25640;DHT22;13497;48.322;16.204;2023-05-23T06:51:29;23.10;98.20
25640;DHT22;13497;48.322;16.204;2023-05-23T06:53:55;22.80;98.90
25640;DHT22;13497;48.322;16.204;2023-05-23T06:56:22;22.50;99.40
25640;DHT22;13497;48.322;16.204;2023-05-23T06:58:48;22.20;99.90
25640;DHT22;13497;48.322;16.204;2023-05-23T07:01:14;22.00;99.90
25640;DHT22;13497;48.322;16.204;2023-05-23T07:03:40;22.00;99.90
25640;DHT22;13497;48.322;16.204;2023-05-23T07:06:07;21.90;99.90
25640;DHT22;13497;48.322;16.204;2023-05-23T07:08:33;21.90;99.90
25640;DHT22;13497;48.322;16.204;2023-05-23T07:11:00;21.80;99.90
25640;DHT22;13497;48.322;16.204;2023-05-23T07:13:25;21.90;99.90
25640;DHT22;13497;48.322;16.204;2023-05-23T07:15:51;22.00;99.90
25640;DHT22;13497;48.322;16.204;2023-05-23T07:18:17;22.10;99.90
25640;DHT22;13497;48.322;16.204;2023-05-23T07:20:42;22.10;99.90
25640;DHT22;13497;48.322;16.204;2023-05-23T07:23:08;22.10;99.90
25640;DHT22;13497;48.322;16.204;2023-05-23T07:25:34;22.10;99.90
25640;DHT22;13497;48.322;16.204;2023-05-23T07:28:01;21.80;99.90
25640;DHT22;13497;48.322;16.204;2023-05-23T07:30:26;21.90;99.90
25640;DHT22;13497;48.322;16.204;2023-05-23T07:32:52;22.10;99.90
25640;DHT22;13497;48.322;16.204;2023-05-23T07:35:18;22.20;99.90
25640;DHT22;13497;48.322;16.204;2023-05-23T07:37:48;22.40;99.90
25640;DHT22;13497;48.322;16.204;2023-05-23T07:40:14;22.50;99.90
25640;DHT22;13497;48.322;16.204;2023-05-23T07:42:39;22.50;99.90
25640;DHT22;13497;48.322;16.204;2023-05-23T07:45:05;22.50;99.90
25640;DHT22;13497;48.322;16.204;2023-05-23T07:47:31;22.40;99.90
25640;DHT22;13497;48.322;16.204;2023-05-23T07:49:57;22.40;99.90
25640;DHT22;13497;48.322;16.204;2023-05-23T07:52:23;22.40;99.90
25640;DHT22;13497;48.322;16.204;2023-05-23T07:54:48;22.40;99.90
25640;DHT22;13497;48.322;16.204;2023-05-23T07:57:14;22.60;99.90
25640;DHT22;13497;48.322;16.204;2023-05-23T07:59:41;22.70;99.90
25640;DHT22;13497;48.322;16.204;2023-05-23T08:02:06;22.70;99.90
25640;DHT22;13497;48.322;16.204;2023-05-23T08:04:32;22.70;99.90
25640;DHT22;13497;48.322;16.204;2023-05-23T08:06:58;22.80;99.90
25640;DHT22;13497;48.322;16.204;2023-05-23T08:09:24;23.10;99.90
25640;DHT22;13497;48.322;16.204;2023-05-23T08:11:50;23.20;99.90
25640;DHT22;13497;48.322;16.204;2023-05-23T08:14:16;23.20;99.90
25640;DHT22;13497;48.322;16.204;2023-05-23T08:16:41;23.30;99.50
25640;DHT22;13497;48.322;16.204;2023-05-23T08:19:07;23.20;99.70
25640;DHT22;13497;48.322;16.204;2023-05-23T08:21:34;23.30;99.90
25640;DHT22;13497;48.322;16.204;2023-05-23T08:24:00;23.50;99.70
25640;DHT22;13497;48.322;16.204;2023-05-23T08:26:26;23.60;99.50
25640;DHT22;13497;48.322;16.204;2023-05-23T08:28:59;23.60;99.90
25640;DHT22;13497;48.322;16.204;2023-05-23T08:31:30;23.70;99.70
25640;DHT22;13497;48.322;16.204;2023-05-23T08:33:56;23.90;99.80
25640;DHT22;13497;48.322;16.204;2023-05-23T08:36:21;24.10;99.30
25640;DHT22;13497;48.322;16.204;2023-05-23T08:38:49;24.10;99.30
25640;DHT22;13497;48.322;16.204;2023-05-23T08:41:18;24.10;99.20
25640;DHT22;13497;48.322;16.204;2023-05-23T08:43:44;24.10;99.50
25640;DHT22;13497;48.322;16.204;2023-05-23T08:46:11;24.10;99.50
25640;DHT22;13497;48.322;16.204;2023-05-23T08:48:37;24.30;99.30
25640;DHT22;13497;48.322;16.204;2023-05-23T08:51:04;24.40;99.30
25640;DHT22;13497;48.322;16.204;2023-05-23T08:53:30;24.50;99.10
25640;DHT22;13497;48.322;16.204;2023-05-23T08:55:58;24.40;99.20
25640;DHT22;13497;48.322;16.204;2023-05-23T08:58:29;24.40;99.30
25640;DHT22;13497;48.322;16.204;2023-05-23T09:00:55;24.50;99.30
25640;DHT22;13497;48.322;16.204;2023-05-23T09:03:21;24.60;99.50
25640;DHT22;13497;48.322;16.204;2023-05-23T09:05:48;24.90;98.60
25640;DHT22;13497;48.322;16.204;2023-05-23T09:08:15;25.10;99.00
25640;DHT22;13497;48.322;16.204;2023-05-23T09:10:41;25.30;98.30
25640;DHT22;13497;48.322;16.204;2023-05-23T09:13:07;25.40;98.50
25640;DHT22;13497;48.322;16.204;2023-05-23T09:15:34;25.40;98.80
25640;DHT22;13497;48.322;16.204;2023-05-23T09:18:00;25.40;98.90
25640;DHT22;13497;48.322;16.204;2023-05-23T09:20:30;25.40;97.80
25640;DHT22;13497;48.322;16.204;2023-05-23T09:22:56;25.40;97.70
25640;DHT22;13497;48.322;16.204;2023-05-23T09:25:21;25.30;97.70
25640;DHT22;13497;48.322;16.204;2023-05-23T09:27:47;25.40;97.80
25640;DHT22;13497;48.322;16.204;2023-05-23T09:30:14;25.50;98.00
25640;DHT22;13497;48.322;16.204;2023-05-23T09:32:41;25.50;96.80
25640;DHT22;13497;48.322;16.204;2023-05-23T09:35:07;25.50;97.20
25640;DHT22;13497;48.322;16.204;2023-05-23T09:37:42;25.70;96.90
25640;DHT22;13497;48.322;16.204;2023-05-23T09:40:12;25.70;96.50
25640;DHT22;13497;48.322;16.204;2023-05-23T09:42:45;25.60;96.30
25640;DHT22;13497;48.322;16.204;2023-05-23T09:45:14;25.60;96.50
25640;DHT22;13497;48.322;16.204;2023-05-23T09:47:52;25.70;96.30
25640;DHT22;13497;48.322;16.204;2023-05-23T09:50:18;25.90;96.70
25640;DHT22;13497;48.322;16.204;2023-05-23T09:52:43;26.00;96.30
25640;DHT22;13497;48.322;16.204;2023-05-23T09:55:09;26.10;96.60
25640;DHT22;13497;48.322;16.204;2023-05-23T09:57:36;26.00;96.30
25640;DHT22;13497;48.322;16.204;2023-05-23T10:00:04;26.00;96.00
25640;DHT22;13497;48.322;16.204;2023-05-23T10:05:48;26.10;96.40
25640;DHT22;13497;48.322;16.204;2023-05-23T10:08:36;26.10;96.60
25640;DHT22;13497;48.322;16.204;2023-05-23T10:13:43;26.40;96.30
25640;DHT22;13497;48.322;16.204;2023-05-23T10:16:17;26.40;95.60
25640;DHT22;13497;48.322;16.204;2023-05-23T10:18:44;26.30;95.50
25640;DHT22;13497;48.322;16.204;2023-05-23T10:21:18;26.40;95.40
25640;DHT22;13497;48.322;16.204;2023-05-23T10:23:46;26.60;95.70
25640;DHT22;13497;48.322;16.204;2023-05-23T10:26:12;26.60;94.90
25640;DHT22;13497;48.322;16.204;2023-05-23T10:28:39;26.60;95.40
25640;DHT22;13497;48.322;16.204;2023-05-23T10:31:06;26.90;95.80
25640;DHT22;13497;48.322;16.204;2023-05-23T10:33:35;27.10;94.60
25640;DHT22;13497;48.322;16.204;2023-05-23T10:36:24;27.20;94.20
25640;DHT22;13497;48.322;16.204;2023-05-23T10:39:18;27.20;94.70
25640;DHT22;13497;48.322;16.204;2023-05-23T10:41:52;27.10;94.90
25640;DHT22;13497;48.322;16.204;2023-05-23T10:44:29;27.00;94.40
25640;DHT22;13497;48.322;16.204;2023-05-23T10:49:42;27.20;94.70
25640;DHT22;13497;48.322;16.204;2023-05-23T10:52:13;27.30;94.70
25640;DHT22;13497;48.322;16.204;2023-05-23T10:57:14;27.40;95.10
25640;DHT22;13497;48.322;16.204;2023-05-23T10:59:41;27.20;95.20
25640;DHT22;13497;48.322;16.204;2023-05-23T11:02:13;26.40;96.30
25640;DHT22;13497;48.322;16.204;2023-05-23T11:04:42;26.20;96.30
25640;DHT22;13497;48.322;16.204;2023-05-23T11:07:31;26.00;96.30
25640;DHT22;13497;48.322;16.204;2023-05-23T11:10:13;25.90;97.00
25640;DHT22;13497;48.322;16.204;2023-05-23T11:12:45;25.90;96.50
25640;DHT22;13497;48.322;16.204;2023-05-23T11:17:53;25.90;96.10
25640;DHT22;13497;48.322;16.204;2023-05-23T11:20:21;25.60;96.10
25640;DHT22;13497;48.322;16.204;2023-05-23T11:23:02;25.40;96.60
25640;DHT22;13497;48.322;16.204;2023-05-23T11:25:42;25.20;96.30
25640;DHT22;13497;48.322;16.204;2023-05-23T11:28:12;25.00;96.30
25640;DHT22;13497;48.322;16.204;2023-05-23T11:30:39;24.90;96.70
25640;DHT22;13497;48.322;16.204;2023-05-23T11:33:07;24.80;97.00
25640;DHT22;13497;48.322;16.204;2023-05-23T11:35:35;24.70;96.80
25640;DHT22;13497;48.322;16.204;2023-05-23T11:38:05;24.70;97.10
25640;DHT22;13497;48.322;16.204;2023-05-23T11:40:39;24.80;96.80
25640;DHT22;13497;48.322;16.204;2023-05-23T11:43:06;25.10;96.50
25640;DHT22;13497;48.322;16.204;2023-05-23T11:45:34;25.20;96.20
25640;DHT22;13497;48.322;16.204;2023-05-23T11:48:04;25.30;95.90
25640;DHT22;13497;48.322;16.204;2023-05-23T11:50:30;25.10;96.10
25640;DHT22;13497;48.322;16.204;2023-05-23T11:52:56;25.30;96.20
25640;DHT22;13497;48.322;16.204;2023-05-23T11:55:22;25.50;96.20
25640;DHT22;13497;48.322;16.204;2023-05-23T11:57:48;25.70;95.90
25640;DHT22;13497;48.322;16.204;2023-05-23T12:00:15;25.70;95.10
25640;DHT22;13497;48.322;16.204;2023-05-23T12:02:41;25.80;95.80
25640;DHT22;13497;48.322;16.204;2023-05-23T12:05:12;26.00;95.40
25640;DHT22;13497;48.322;16.204;2023-05-23T12:07:41;26.20;95.30
25640;DHT22;13497;48.322;16.204;2023-05-23T12:10:09;26.40;95.60
25640;DHT22;13497;48.322;16.204;2023-05-23T12:12:36;26.70;94.80
25640;DHT22;13497;48.322;16.204;2023-05-23T12:15:03;26.90;94.20
25640;DHT22;13497;48.322;16.204;2023-05-23T12:17:29;26.80;94.50
25640;DHT22;13497;48.322;16.204;2023-05-23T12:19:55;26.80;94.70
25640;DHT22;13497;48.322;16.204;2023-05-23T12:22:24;26.80;94.60
25640;DHT22;13497;48.322;16.204;2023-05-23T12:24:54;26.70;94.40
25640;DHT22;13497;48.322;16.204;2023-05-23T12:27:29;26.50;94.60
25640;DHT22;13497;48.322;16.204;2023-05-23T12:30:14;26.20;95.00
25640;DHT22;13497;48.322;16.204;2023-05-23T12:32:42;26.20;95.30
25640;DHT22;13497;48.322;16.204;2023-05-23T12:35:10;26.20;95.70
25640;DHT22;13497;48.322;16.204;2023-05-23T12:37:45;26.20;95.70
25640;DHT22;13497;48.322;16.204;2023-05-23T12:40:15;26.20;95.70
25640;DHT22;13497;48.322;16.204;2023-05-23T12:42:55;26.30;95.80
25640;DHT22;13497;48.322;16.204;2023-05-23T12:45:31;26.40;95.80
25640;DHT22;13497;48.322;16.204;2023-05-23T12:47:58;26.60;95.60
25640;DHT22;13497;48.322;16.204;2023-05-23T12:50:24;26.70;95.20
25640;DHT22;13497;48.322;16.204;2023-05-23T12:52:50;26.80;95.10
25640;DHT22;13497;48.322;16.204;2023-05-23T12:55:17;27.00;94.80
25640;DHT22;13497;48.322;16.204;2023-05-23T12:57:42;27.20;94.30
25640;DHT22;13497;48.322;16.204;2023-05-23T13:00:08;27.30;94.50
25640;DHT22;13497;48.322;16.204;2023-05-23T13:02:34;27.20;94.50
25640;DHT22;13497;48.322;16.204;2023-05-23T13:05:00;27.00;95.00
25640;DHT22;13497;48.322;16.204;2023-05-23T13:07:26;27.00;94.70
25640;DHT22;13497;48.322;16.204;2023-05-23T13:09:51;26.80;93.70
25640;DHT22;13497;48.322;16.204;2023-05-23T13:12:17;26.60;94.10
25640;DHT22;13497;48.322;16.204;2023-05-23T13:14:43;26.40;94.50
25640;DHT22;13497;48.322;16.204;2023-05-23T13:17:08;26.30;94.90
25640;DHT22;13497;48.322;16.204;2023-05-23T13:19:34;26.10;95.40
25640;DHT22;13497;48.322;16.204;2023-05-23T13:22:00;26.10;95.80
25640;DHT22;13497;48.322;16.204;2023-05-23T13:24:26;26.10;96.00
25640;DHT22;13497;48.322;16.204;2023-05-23T13:26:52;25.90;96.20
25640;DHT22;13497;48.322;16.204;2023-05-23T13:29:17;25.30;96.70
25640;DHT22;13497;48.322;16.204;2023-05-23T13:31:43;24.90;97.60
25640;DHT22;13497;48.322;16.204;2023-05-23T13:34:09;24.50;97.90
25640;DHT22;13497;48.322;16.204;2023-05-23T13:36:35;24.30;98.80
25640;DHT22;13497;48.322;16.204;2023-05-23T13:39:01;23.80;99.90
25640;DHT22;13497;48.322;16.204;2023-05-23T13:41:27;23.00;99.90
25640;DHT22;13497;48.322;16.204;2023-05-23T13:43:53;22.30;99.90
25640;DHT22;13497;48.322;16.204;2023-05-23T13:46:19;21.60;99.90
25640;DHT22;13497;48.322;16.204;2023-05-23T13:48:44;21.10;99.90
25640;DHT22;13497;48.322;16.204;2023-05-23T13:51:10;20.70;99.90
25640;DHT22;13497;48.322;16.204;2023-05-23T13:53:36;20.40;99.90
25640;DHT22;13497;48.322;16.204;2023-05-23T13:56:02;20.30;99.90
25640;DHT22;13497;48.322;16.204;2023-05-23T13:58:28;20.20;99.90
25640;DHT22;13497;48.322;16.204;2023-05-23T14:00:53;20.10;99.90
25640;DHT22;13497;48.322;16.204;2023-05-23T14:03:19;20.00;99.90
25640;DHT22;13497;48.322;16.204;2023-05-23T14:05:45;20.10;99.90
25640;DHT22;13497;48.322;16.204;2023-05-23T14:08:11;20.20;99.90
25640;DHT22;13497;48.322;16.204;2023-05-23T14:10:39;20.30;99.90
25640;DHT22;13497;48.322;16.204;2023-05-23T14:13:06;20.40;99.90
25640;DHT22;13497;48.322;16.204;2023-05-23T14:15:32;20.50;99.90
25640;DHT22;13497;48.322;16.204;2023-05-23T14:17:58;20.50;99.90
25640;DHT22;13497;48.322;16.204;2023-05-23T14:20:23;20.70;99.90
25640;DHT22;13497;48.322;16.204;2023-05-23T14:22:50;20.80;99.90
25640;DHT22;13497;48.322;16.204;2023-05-23T14:25:16;20.90;99.90
25640;DHT22;13497;48.322;16.204;2023-05-23T14:27:41;21.10;99.90
25640;DHT22;13497;48.322;16.204;2023-05-23T14:30:08;21.30;99.90
25640;DHT22;13497;48.322;16.204;2023-05-23T14:32:34;21.50;99.90
25640;DHT22;13497;48.322;16.204;2023-05-23T14:35:05;21.60;99.90
25640;DHT22;13497;48.322;16.204;2023-05-23T14:37:31;21.50;99.90
25640;DHT22;13497;48.322;16.204;2023-05-23T14:39:57;21.50;99.90
25640;DHT22;13497;48.322;16.204;2023-05-23T14:42:23;21.40;99.90
25640;DHT22;13497;48.322;16.204;2023-05-23T14:44:48;21.30;99.90
25640;DHT22;13497;48.322;16.204;2023-05-23T14:47:14;21.30;99.90
25640;DHT22;13497;48.322;16.204;2023-05-23T14:49:40;21.10;99.90
25640;DHT22;13497;48.322;16.204;2023-05-23T14:52:05;20.90;99.90
25640;DHT22;13497;48.322;16.204;2023-05-23T14:54:31;20.90;99.90
25640;DHT22;13497;48.322;16.204;2023-05-23T14:56:58;20.80;99.90
25640;DHT22;13497;48.322;16.204;2023-05-23T14:59:24;20.60;99.90
25640;DHT22;13497;48.322;16.204;2023-05-23T15:01:50;20.40;99.90
25640;DHT22;13497;48.322;16.204;2023-05-23T15:04:16;20.30;99.90
25640;DHT22;13497;48.322;16.204;2023-05-23T15:06:42;20.10;99.90
25640;DHT22;13497;48.322;16.204;2023-05-23T15:09:07;20.00;99.90
25640;DHT22;13497;48.322;16.204;2023-05-23T15:11:35;19.90;99.90
25640;DHT22;13497;48.322;16.204;2023-05-23T15:14:02;19.60;99.90
25640;DHT22;13497;48.322;16.204;2023-05-23T15:16:28;19.50;99.90
25640;DHT22;13497;48.322;16.204;2023-05-23T15:18:57;19.30;99.90
25640;DHT22;13497;48.322;16.204;2023-05-23T15:21:24;19.30;99.90
25640;DHT22;13497;48.322;16.204;2023-05-23T15:23:50;19.20;99.90
25640;DHT22;13497;48.322;16.204;2023-05-23T15:26:15;19.00;99.90
25640;DHT22;13497;48.322;16.204;2023-05-23T15:28:42;18.90;99.90
25640;DHT22;13497;48.322;16.204;2023-05-23T15:31:08;18.80;99.90
25640;DHT22;13497;48.322;16.204;2023-05-23T15:33:34;18.70;99.90
25640;DHT22;13497;48.322;16.204;2023-05-23T15:36:00;18.60;99.90